sensor_id;sensor_type;location;lat;lon;timestamp;pressure;altitude;pressure_sealevel;temperature;humidity
38466;BME280;24244;51.950;5.902;2022-11-15T00:00:43;100805.56;;;8.98;81.50
38466;BME280;24244;51.950;5.902;2022-11-15T00:03:10;100799.25;;;8.99;81.56
38466;BME280;24244;51.950;5.902;2022-11-15T00:05:40;100805.38;;;8.99;81.57
38466;BME280;24244;51.950;5.902;2022-11-15T00:08:07;100791.28;;;8.99;81.84
38466;BME280;24244;51.950;5.902;2022-11-15T00:10:34;100796.44;;;9.00;81.87
38466;BME280;24244;51.950;5.902;2022-11-15T00:13:04;100798.09;;;9.01;81.91
38466;BME280;24244;51.950;5.902;2022-11-15T00:15:31;100795.22;;;9.03;82.00
38466;BME280;24244;51.950;5.902;2022-11-15T00:17:58;100791.75;;;9.02;82.14
38466;BME280;24244;51.950;5.902;2022-11-15T00:20:25;100783.81;;;9.02;82.20
38466;BME280;24244;51.950;5.902;2022-11-15T00:22:53;100783.63;;;9.04;82.28
38466;BME280;24244;51.950;5.902;2022-11-15T00:25:20;100790.59;;;9.05;82.31
38466;BME280;24244;51.950;5.902;2022-11-15T00:27:46;100779.31;;;9.03;82.39
38466;BME280;24244;51.950;5.902;2022-11-15T00:30:13;100782.81;;;9.03;82.43
38466;BME280;24244;51.950;5.902;2022-11-15T00:32:40;100778.34;;;9.04;82.37
38466;BME280;24244;51.950;5.902;2022-11-15T00:35:07;100770.22;;;9.06;82.69
38466;BME280;24244;51.950;5.902;2022-11-15T00:37:34;100772.03;;;9.05;82.59
38466;BME280;24244;51.950;5.902;2022-11-15T00:40:02;100769.22;;;9.07;82.66
38466;BME280;24244;51.950;5.902;2022-11-15T00:42:29;100774.50;;;9.07;82.73
38466;BME280;24244;51.950;5.902;2022-11-15T00:44:55;100770.03;;;9.07;82.49
38466;BME280;24244;51.950;5.902;2022-11-15T00:47:22;100769.88;;;9.09;82.63
38466;BME280;24244;51.950;5.902;2022-11-15T00:49:49;100768.22;;;9.08;82.93
38466;BME280;24244;51.950;5.902;2022-11-15T00:52:15;100771.69;;;9.08;82.78
38466;BME280;24244;51.950;5.902;2022-11-15T00:54:42;100768.03;;;9.09;82.88
38466;BME280;24244;51.950;5.902;2022-11-15T00:57:10;100763.53;;;9.10;83.15
38466;BME280;24244;51.950;5.902;2022-11-15T00:59:36;100760.09;;;9.09;83.22
38466;BME280;24244;51.950;5.902;2022-11-15T01:02:03;100763.53;;;9.10;83.22
38466;BME280;24244;51.950;5.902;2022-11-15T01:04:30;100763.53;;;9.10;83.20
38466;BME280;24244;51.950;5.902;2022-11-15T01:06:57;100751.09;;;9.10;83.26
38466;BME280;24244;51.950;5.902;2022-11-15T01:09:23;100748.47;;;9.10;83.43
38466;BME280;24244;51.950;5.902;2022-11-15T01:11:50;100742.81;;;9.13;83.36
38466;BME280;24244;51.950;5.902;2022-11-15T01:14:18;100733.84;;;9.14;83.65
38466;BME280;24244;51.950;5.902;2022-11-15T01:16:50;100732.66;;;9.17;83.58
38466;BME280;24244;51.950;5.902;2022-11-15T01:19:17;100738.78;;;9.17;83.47
38466;BME280;24244;51.950;5.902;2022-11-15T01:21:44;100736.97;;;9.18;83.34
38466;BME280;24244;51.950;5.902;2022-11-15T01:24:12;100736.78;;;9.19;83.78
38466;BME280;24244;51.950;5.902;2022-11-15T01:26:39;100725.19;;;9.20;83.60
38466;BME280;24244;51.950;5.902;2022-11-15T01:29:06;100723.38;;;9.21;83.88
38466;BME280;24244;51.950;5.902;2022-11-15T01:31:34;100726.66;;;9.23;83.54
38466;BME280;24244;51.950;5.902;2022-11-15T01:34:01;100719.72;;;9.22;83.86
38466;BME280;24244;51.950;5.902;2022-11-15T01:36:28;100711.75;;;9.22;83.55
38466;BME280;24244;51.950;5.902;2022-11-15T01:38:55;100713.22;;;9.24;83.46
38466;BME280;24244;51.950;5.902;2022-11-15T01:41:24;100710.38;;;9.26;83.71
38466;BME280;24244;51.950;5.902;2022-11-15T01:43:53;100703.91;;;9.28;83.80
38466;BME280;24244;51.950;5.902;2022-11-15T01:46:28;100710.03;;;9.29;83.72
38466;BME280;24244;51.950;5.902;2022-11-15T01:48:59;100710.66;;;9.31;83.86
38466;BME280;24244;51.950;5.902;2022-11-15T01:51:30;100707.84;;;9.32;83.93
38466;BME280;24244;51.950;5.902;2022-11-15T01:54:00;100707.66;;;9.34;83.71
38466;BME280;24244;51.950;5.902;2022-11-15T01:56:30;100702.00;;;9.37;83.76
38466;BME280;24244;51.950;5.902;2022-11-15T01:59:01;100703.63;;;9.38;83.98
38466;BME280;24244;51.950;5.902;2022-11-15T02:01:30;100701.63;;;9.40;83.88
38466;BME280;24244;51.950;5.902;2022-11-15T02:04:03;100698.63;;;9.43;83.92
38466;BME280;24244;51.950;5.902;2022-11-15T02:06:34;100693.16;;;9.45;83.66
38466;BME280;24244;51.950;5.902;2022-11-15T02:09:01;100687.03;;;9.44;84.10
38466;BME280;24244;51.950;5.902;2022-11-15T02:11:28;100706.88;;;9.48;84.12
38466;BME280;24244;51.950;5.902;2022-11-15T02:13:56;100697.09;;;9.49;83.84
38466;BME280;24244;51.950;5.902;2022-11-15T02:16:30;100689.78;;;9.51;83.99
38466;BME280;24244;51.950;5.902;2022-11-15T02:19:11;100688.78;;;9.52;83.80
38466;BME280;24244;51.950;5.902;2022-11-15T02:21:43;100686.13;;;9.52;83.78
38466;BME280;24244;51.950;5.902;2022-11-15T02:24:35;100691.88;;;9.55;83.80
38466;BME280;24244;51.950;5.902;2022-11-15T02:30:21;100688.06;;;9.58;83.30
38466;BME280;24244;51.950;5.902;2022-11-15T02:32:51;100684.19;;;9.60;83.53
38466;BME280;24244;51.950;5.902;2022-11-15T02:35:28;100681.38;;;9.62;83.23
38466;BME280;24244;51.950;5.902;2022-11-15T02:37:58;100678.34;;;9.65;83.36
38466;BME280;24244;51.950;5.902;2022-11-15T02:40:33;100677.97;;;9.68;83.09
38466;BME280;24244;51.950;5.902;2022-11-15T02:43:07;100669.00;;;9.69;83.37
38466;BME280;24244;51.950;5.902;2022-11-15T02:46:00;100671.31;;;9.72;83.34
38466;BME280;24244;51.950;5.902;2022-11-15T02:48:30;100665.00;;;9.73;83.16
38466;BME280;24244;51.950;5.902;2022-11-15T02:50:58;100664.78;;;9.74;82.96
38466;BME280;24244;51.950;5.902;2022-11-15T02:53:26;100669.75;;;9.77;82.78
38466;BME280;24244;51.950;5.902;2022-11-15T02:55:55;100652.81;;;9.78;82.79
38466;BME280;24244;51.950;5.902;2022-11-15T03:01:36;100647.78;;;9.83;83.10
38466;BME280;24244;51.950;5.902;2022-11-15T03:04:15;100648.44;;;9.86;83.00
38466;BME280;24244;51.950;5.902;2022-11-15T03:06:47;100644.78;;;9.87;82.82
38466;BME280;24244;51.950;5.902;2022-11-15T03:09:24;100644.38;;;9.90;83.01
38466;BME280;24244;51.950;5.902;2022-11-15T03:11:59;100646.84;;;9.91;83.18
38466;BME280;24244;51.950;5.902;2022-11-15T03:14:30;100638.72;;;9.93;82.96
38466;BME280;24244;51.950;5.902;2022-11-15T03:17:06;100638.31;;;9.96;82.96
38466;BME280;24244;51.950;5.902;2022-11-15T03:19:42;100635.31;;;9.99;82.81
38466;BME280;24244;51.950;5.902;2022-11-15T03:22:11;100635.13;;;10.00;83.09
38466;BME280;24244;51.950;5.902;2022-11-15T03:24:41;100637.59;;;10.02;82.98
38466;BME280;24244;51.950;5.902;2022-11-15T03:27:11;100635.41;;;10.05;83.04
38466;BME280;24244;51.950;5.902;2022-11-15T03:29:43;100636.03;;;10.07;82.91
38466;BME280;24244;51.950;5.902;2022-11-15T03:32:14;100634.81;;;10.10;82.84
38466;BME280;24244;51.950;5.902;2022-11-15T03:34:45;100638.13;;;10.12;82.84
38466;BME280;24244;51.950;5.902;2022-11-15T03:37:15;100631.81;;;10.13;82.58
38466;BME280;24244;51.950;5.902;2022-11-15T03:39:43;100633.28;;;10.15;82.82
38466;BME280;24244;51.950;5.902;2022-11-15T03:42:18;100638.41;;;10.17;82.85
38466;BME280;24244;51.950;5.902;2022-11-15T03:44:51;100642.53;;;10.19;82.75
38466;BME280;24244;51.950;5.902;2022-11-15T03:47:26;100637.06;;;10.21;82.99
38466;BME280;24244;51.950;5.902;2022-11-15T03:49:59;100643.81;;;10.24;82.77
38466;BME280;24244;51.950;5.902;2022-11-15T03:52:31;100641.78;;;10.26;82.83
38466;BME280;24244;51.950;5.902;2022-11-15T03:55:01;100642.44;;;10.28;82.88
38466;BME280;24244;51.950;5.902;2022-11-15T03:57:29;100637.78;;;10.30;83.42
38466;BME280;24244;51.950;5.902;2022-11-15T03:59:55;100637.38;;;10.33;83.55
38466;BME280;24244;51.950;5.902;2022-11-15T04:02:23;100649.28;;;10.37;83.95
38466;BME280;24244;51.950;5.902;2022-11-15T04:04:50;100640.09;;;10.39;83.79
38466;BME280;24244;51.950;5.902;2022-11-15T04:07:17;100640.56;;;10.43;84.11
38466;BME280;24244;51.950;5.902;2022-11-15T04:09:44;100643.03;;;10.44;84.35
38466;BME280;24244;51.950;5.902;2022-11-15T04:12:29;100637.34;;;10.47;84.37
38466;BME280;24244;51.950;5.902;2022-11-15T04:15:00;100640.44;;;10.51;84.73
38466;BME280;24244;51.950;5.902;2022-11-15T04:17:39;100644.38;;;10.55;84.73
38466;BME280;24244;51.950;5.902;2022-11-15T04:20:08;100636.84;;;10.58;84.84
38466;BME280;24244;51.950;5.902;2022-11-15T04:22:55;100640.75;;;10.63;84.54
38466;BME280;24244;51.950;5.902;2022-11-15T04:25:41;100625.47;;;10.65;84.92
38466;BME280;24244;51.950;5.902;2022-11-15T04:28:08;100638.16;;;10.69;84.82
38466;BME280;24244;51.950;5.902;2022-11-15T04:30:35;100623.69;;;10.72;84.67
38466;BME280;24244;51.950;5.902;2022-11-15T04:33:03;100617.97;;;10.75;84.97
38466;BME280;24244;51.950;5.902;2022-11-15T04:35:30;100630.72;;;10.79;84.76
38466;BME280;24244;51.950;5.902;2022-11-15T04:37:57;100626.84;;;10.82;85.25
38466;BME280;24244;51.950;5.902;2022-11-15T04:40:24;100629.94;;;10.85;85.17
38466;BME280;24244;51.950;5.902;2022-11-15T04:42:51;100625.25;;;10.87;85.20
38466;BME280;24244;51.950;5.902;2022-11-15T04:45:17;100630.00;;;10.92;84.98
38466;BME280;24244;51.950;5.902;2022-11-15T04:47:44;100630.81;;;10.92;85.04
38466;BME280;24244;51.950;5.902;2022-11-15T04:50:14;100625.09;;;10.95;85.11
38466;BME280;24244;51.950;5.902;2022-11-15T04:52:41;100627.59;;;10.97;85.48
38466;BME280;24244;51.950;5.902;2022-11-15T04:55:08;100633.53;;;10.99;85.35
38466;BME280;24244;51.950;5.902;2022-11-15T04:57:35;100638.47;;;11.02;85.56
38466;BME280;24244;51.950;5.902;2022-11-15T05:00:04;100631.13;;;11.04;85.84
38466;BME280;24244;51.950;5.902;2022-11-15T05:02:31;100621.13;;;11.06;85.65
38466;BME280;24244;51.950;5.902;2022-11-15T05:05:19;100633.00;;;11.10;85.70
38466;BME280;24244;51.950;5.902;2022-11-15T05:07:46;100629.34;;;11.11;85.91
38466;BME280;24244;51.950;5.902;2022-11-15T05:10:13;100632.63;;;11.13;85.47
38466;BME280;24244;51.950;5.902;2022-11-15T05:12:39;100628.75;;;11.16;85.90
38466;BME280;24244;51.950;5.902;2022-11-15T05:15:07;100625.06;;;11.17;85.91
38466;BME280;24244;51.950;5.902;2022-11-15T05:17:34;100626.53;;;11.19;85.77
38466;BME280;24244;51.950;5.902;2022-11-15T05:20:01;100621.84;;;11.21;85.63
38466;BME280;24244;51.950;5.902;2022-11-15T05:22:29;100620.03;;;11.22;85.77
38466;BME280;24244;51.950;5.902;2022-11-15T05:24:55;100621.63;;;11.23;85.58
38466;BME280;24244;51.950;5.902;2022-11-15T05:27:22;100616.94;;;11.25;85.51
38466;BME280;24244;51.950;5.902;2022-11-15T05:29:49;100617.78;;;11.25;85.59
38466;BME280;24244;51.950;5.902;2022-11-15T05:32:16;100624.75;;;11.26;85.73
38466;BME280;24244;51.950;5.902;2022-11-15T05:34:44;100621.91;;;11.28;85.64
38466;BME280;24244;51.950;5.902;2022-11-15T05:37:11;100623.72;;;11.27;85.88
38466;BME280;24244;51.950;5.902;2022-11-15T05:39:40;100630.47;;;11.30;85.89
38466;BME280;24244;51.950;5.902;2022-11-15T05:42:08;100620.66;;;11.30;85.49
38466;BME280;24244;51.950;5.902;2022-11-15T05:44:36;100623.31;;;11.30;85.57
38466;BME280;24244;51.950;5.902;2022-11-15T05:47:06;100629.28;;;11.32;85.64
38466;BME280;24244;51.950;5.902;2022-11-15T05:49:36;100637.09;;;11.34;85.67
38466;BME280;24244;51.950;5.902;2022-11-15T05:52:07;100627.25;;;11.34;85.63
38466;BME280;24244;51.950;5.902;2022-11-15T05:54:37;100628.09;;;11.35;85.51
38466;BME280;24244;51.950;5.902;2022-11-15T05:57:05;100630.56;;;11.36;85.42
38466;BME280;24244;51.950;5.902;2022-11-15T05:59:33;100627.91;;;11.36;85.66
38466;BME280;24244;51.950;5.902;2022-11-15T06:02:00;100631.34;;;11.37;85.95
38466;BME280;24244;51.950;5.902;2022-11-15T06:04:27;100626.66;;;11.39;85.70
38466;BME280;24244;51.950;5.902;2022-11-15T06:06:53;100637.31;;;11.39;85.86
38466;BME280;24244;51.950;5.902;2022-11-15T06:09:20;100639.78;;;11.41;85.76
38466;BME280;24244;51.950;5.902;2022-11-15T06:11:47;100646.75;;;11.42;85.75
38466;BME280;24244;51.950;5.902;2022-11-15T06:14:16;100644.72;;;11.44;85.75
38466;BME280;24244;51.950;5.902;2022-11-15T06:16:43;100634.09;;;11.44;85.89
38466;BME280;24244;51.950;5.902;2022-11-15T06:19:10;100633.88;;;11.45;85.94
38466;BME280;24244;51.950;5.902;2022-11-15T06:21:37;100632.03;;;11.46;86.21
38466;BME280;24244;51.950;5.902;2022-11-15T06:24:04;100632.84;;;11.46;85.87
38466;BME280;24244;51.950;5.902;2022-11-15T06:26:32;100630.19;;;11.46;86.24
38466;BME280;24244;51.950;5.902;2022-11-15T06:29:02;100626.53;;;11.47;86.02
38466;BME280;24244;51.950;5.902;2022-11-15T06:31:30;100630.00;;;11.48;86.32
38466;BME280;24244;51.950;5.902;2022-11-15T06:33:57;100636.78;;;11.50;85.95
38466;BME280;24244;51.950;5.902;2022-11-15T06:36:23;100640.28;;;11.51;86.11
38466;BME280;24244;51.950;5.902;2022-11-15T06:38:50;100633.91;;;11.52;86.08
38466;BME280;24244;51.950;5.902;2022-11-15T06:41:17;100642.53;;;11.54;85.90
38466;BME280;24244;51.950;5.902;2022-11-15T06:43:44;100650.50;;;11.54;85.50
38466;BME280;24244;51.950;5.902;2022-11-15T06:46:10;100651.34;;;11.54;85.79
38466;BME280;24244;51.950;5.902;2022-11-15T06:48:38;100653.00;;;11.55;85.95
38466;BME280;24244;51.950;5.902;2022-11-15T06:51:05;100655.66;;;11.55;85.89
38466;BME280;24244;51.950;5.902;2022-11-15T06:53:32;100651.16;;;11.56;85.61
38466;BME280;24244;51.950;5.902;2022-11-15T06:56:00;100653.81;;;11.56;86.06
38466;BME280;24244;51.950;5.902;2022-11-15T06:58:27;100659.97;;;11.56;86.26
38466;BME280;24244;51.950;5.902;2022-11-15T07:00:58;100657.31;;;11.56;85.97
38466;BME280;24244;51.950;5.902;2022-11-15T07:03:25;100655.47;;;11.57;86.18
38466;BME280;24244;51.950;5.902;2022-11-15T07:05:55;100655.47;;;11.57;86.17
38466;BME280;24244;51.950;5.902;2022-11-15T07:08:22;100662.44;;;11.58;86.00
38466;BME280;24244;51.950;5.902;2022-11-15T07:10:49;100671.44;;;11.57;86.25
38466;BME280;24244;51.950;5.902;2022-11-15T07:13:16;100666.94;;;11.57;86.25
38466;BME280;24244;51.950;5.902;2022-11-15T07:15:43;100667.75;;;11.58;85.95
38466;BME280;24244;51.950;5.902;2022-11-15T07:18:10;100672.88;;;11.59;85.92
38466;BME280;24244;51.950;5.902;2022-11-15T07:20:36;100673.69;;;11.60;85.95
38466;BME280;24244;51.950;5.902;2022-11-15T07:23:05;100667.53;;;11.59;86.03
38466;BME280;24244;51.950;5.902;2022-11-15T07:25:32;100670.22;;;11.59;86.16
38466;BME280;24244;51.950;5.902;2022-11-15T07:27:59;100667.34;;;11.61;85.90
38466;BME280;24244;51.950;5.902;2022-11-15T07:30:27;100673.88;;;11.58;86.16
38466;BME280;24244;51.950;5.902;2022-11-15T07:32:54;100669.38;;;11.59;86.11
38466;BME280;24244;51.950;5.902;2022-11-15T07:35:21;100676.34;;;11.60;86.32
38466;BME280;24244;51.950;5.902;2022-11-15T07:37:53;100672.69;;;11.61;86.46
38466;BME280;24244;51.950;5.902;2022-11-15T07:40:22;100682.31;;;11.62;86.58
38466;BME280;24244;51.950;5.902;2022-11-15T07:42:49;100681.31;;;11.63;86.56
38466;BME280;24244;51.950;5.902;2022-11-15T07:45:23;100686.63;;;11.63;86.54
38466;BME280;24244;51.950;5.902;2022-11-15T07:47:52;100683.78;;;11.64;86.73
38466;BME280;24244;51.950;5.902;2022-11-15T07:50:19;100672.91;;;11.66;86.64
38466;BME280;24244;51.950;5.902;2022-11-15T07:52:46;100676.22;;;11.68;86.72
38466;BME280;24244;51.950;5.902;2022-11-15T07:55:13;100682.16;;;11.70;86.50
38466;BME280;24244;51.950;5.902;2022-11-15T07:57:41;100679.50;;;11.70;86.68
38466;BME280;24244;51.950;5.902;2022-11-15T08:00:09;100675.19;;;11.69;86.73
38466;BME280;24244;51.950;5.902;2022-11-15T08:02:36;100683.81;;;11.71;86.48
38466;BME280;24244;51.950;5.902;2022-11-15T08:05:03;100681.75;;;11.73;86.85
38466;BME280;24244;51.950;5.902;2022-11-15T08:07:32;100681.75;;;11.73;86.72
38466;BME280;24244;51.950;5.902;2022-11-15T08:09:59;100682.44;;;11.75;86.89
38466;BME280;24244;51.950;5.902;2022-11-15T08:12:27;100689.41;;;11.76;87.06
38466;BME280;24244;51.950;5.902;2022-11-15T08:14:56;100684.91;;;11.76;86.87
38466;BME280;24244;51.950;5.902;2022-11-15T08:17:23;100674.06;;;11.78;86.97
38466;BME280;24244;51.950;5.902;2022-11-15T08:19:50;100672.22;;;11.79;87.22
38466;BME280;24244;51.950;5.902;2022-11-15T08:22:18;100670.16;;;11.81;87.31
38466;BME280;24244;51.950;5.902;2022-11-15T08:24:45;100671.00;;;11.81;87.34
38466;BME280;24244;51.950;5.902;2022-11-15T08:27:11;100668.97;;;11.83;87.16
38466;BME280;24244;51.950;5.902;2022-11-15T08:29:42;100668.78;;;11.85;87.44
38466;BME280;24244;51.950;5.902;2022-11-15T08:32:10;100654.44;;;11.86;87.40
38466;BME280;24244;51.950;5.902;2022-11-15T08:34:38;100656.06;;;11.87;87.58
38466;BME280;24244;51.950;5.902;2022-11-15T08:37:05;100658.53;;;11.88;87.56
38466;BME280;24244;51.950;5.902;2022-11-15T08:39:32;100664.50;;;11.90;87.16
38466;BME280;24244;51.950;5.902;2022-11-15T08:41:58;100665.31;;;11.91;87.67
38466;BME280;24244;51.950;5.902;2022-11-15T08:44:25;100672.09;;;11.93;87.45
38466;BME280;24244;51.950;5.902;2022-11-15T08:46:52;100670.44;;;11.92;87.50
38466;BME280;24244;51.950;5.902;2022-11-15T08:49:20;100666.56;;;11.95;87.53
38466;BME280;24244;51.950;5.902;2022-11-15T08:51:47;100670.03;;;11.95;87.47
38466;BME280;24244;51.950;5.902;2022-11-15T08:54:13;100673.53;;;11.96;87.75
38466;BME280;24244;51.950;5.902;2022-11-15T08:56:40;100677.66;;;11.98;87.82
38466;BME280;24244;51.950;5.902;2022-11-15T08:59:07;100673.16;;;11.99;87.66
38466;BME280;24244;51.950;5.902;2022-11-15T09:01:33;100679.91;;;12.01;87.80
38466;BME280;24244;51.950;5.902;2022-11-15T09:04:00;100678.06;;;12.02;87.92
38466;BME280;24244;51.950;5.902;2022-11-15T09:06:29;100679.53;;;12.04;88.02
38466;BME280;24244;51.950;5.902;2022-11-15T09:08:56;100671.72;;;12.03;88.19
38466;BME280;24244;51.950;5.902;2022-11-15T09:11:22;100661.88;;;12.03;88.38
38466;BME280;24244;51.950;5.902;2022-11-15T09:13:49;100658.84;;;12.06;88.50
38466;BME280;24244;51.950;5.902;2022-11-15T09:16:16;100666.84;;;12.06;88.12
38466;BME280;24244;51.950;5.902;2022-11-15T09:18:43;100664.16;;;12.06;88.38
38466;BME280;24244;51.950;5.902;2022-11-15T09:21:10;100657.00;;;12.07;88.38
38466;BME280;24244;51.950;5.902;2022-11-15T09:23:38;100655.34;;;12.06;88.54
38466;BME280;24244;51.950;5.902;2022-11-15T09:26:05;100654.94;;;12.09;88.54
38466;BME280;24244;51.950;5.902;2022-11-15T09:28:33;100648.78;;;12.08;88.36
38466;BME280;24244;51.950;5.902;2022-11-15T09:31:03;100642.44;;;12.09;88.32
38466;BME280;24244;51.950;5.902;2022-11-15T09:33:31;100642.25;;;12.11;88.21
38466;BME280;24244;51.950;5.902;2022-11-15T09:36:06;100637.75;;;12.11;88.51
38466;BME280;24244;51.950;5.902;2022-11-15T09:38:33;100638.56;;;12.12;88.12
38466;BME280;24244;51.950;5.902;2022-11-15T09:44:20;100630.56;;;12.12;88.18
38466;BME280;24244;51.950;5.902;2022-11-15T09:47:02;100628.72;;;12.12;88.39
38466;BME280;24244;51.950;5.902;2022-11-15T09:49:32;100635.50;;;12.15;87.97
38466;BME280;24244;51.950;5.902;2022-11-15T09:51:59;100630.97;;;12.15;88.28
38466;BME280;24244;51.950;5.902;2022-11-15T09:54:29;100628.94;;;12.18;88.18
38466;BME280;24244;51.950;5.902;2022-11-15T09:57:30;100632.06;;;12.21;88.28
38466;BME280;24244;51.950;5.902;2022-11-15T10:00:09;100622.81;;;12.24;88.16
38466;BME280;24244;51.950;5.902;2022-11-15T10:03:09;100619.97;;;12.25;88.14
38466;BME280;24244;51.950;5.902;2022-11-15T10:05:38;100609.09;;;12.27;88.24
38466;BME280;24244;51.950;5.902;2022-11-15T10:08:15;100611.56;;;12.28;88.21
38466;BME280;24244;51.950;5.902;2022-11-15T10:10:46;100616.69;;;12.30;88.07
38466;BME280;24244;51.950;5.902;2022-11-15T10:13:18;100606.66;;;12.32;88.44
38466;BME280;24244;51.950;5.902;2022-11-15T10:15:48;100603.78;;;12.33;88.01
38466;BME280;24244;51.950;5.902;2022-11-15T10:18:17;100605.00;;;12.37;87.88
38466;BME280;24244;51.950;5.902;2022-11-15T10:20:50;100597.66;;;12.39;87.99
38466;BME280;24244;51.950;5.902;2022-11-15T10:23:22;100599.28;;;12.40;87.85
38466;BME280;24244;51.950;5.902;2022-11-15T10:25:51;100595.59;;;12.41;87.95
38466;BME280;24244;51.950;5.902;2022-11-15T10:28:22;100597.25;;;12.42;87.65
38466;BME280;24244;51.950;5.902;2022-11-15T10:30:53;100604.44;;;12.42;87.68
38466;BME280;24244;51.950;5.902;2022-11-15T10:33:26;100598.28;;;12.41;87.76
38466;BME280;24244;51.950;5.902;2022-11-15T10:36:16;100603.59;;;12.41;87.51
38466;BME280;24244;51.950;5.902;2022-11-15T10:38:57;100595.41;;;12.43;87.46
38466;BME280;24244;51.950;5.902;2022-11-15T10:41:33;100589.84;;;12.44;87.41
38466;BME280;24244;51.950;5.902;2022-11-15T10:44:25;100577.97;;;12.47;87.00
38466;BME280;24244;51.950;5.902;2022-11-15T10:47:21;100574.09;;;12.49;86.96
38466;BME280;24244;51.950;5.902;2022-11-15T10:49:57;100563.44;;;12.49;86.76
38466;BME280;24244;51.950;5.902;2022-11-15T10:52:24;100558.91;;;12.50;86.72
38466;BME280;24244;51.950;5.902;2022-11-15T10:54:55;100542.50;;;12.53;86.51
38466;BME280;24244;51.950;5.902;2022-11-15T10:57:26;100548.47;;;12.55;86.15
38466;BME280;24244;51.950;5.902;2022-11-15T10:59:58;100549.88;;;12.57;86.03
38466;BME280;24244;51.950;5.902;2022-11-15T11:02:35;100558.31;;;12.61;85.69
38466;BME280;24244;51.950;5.902;2022-11-15T11:05:04;100553.78;;;12.62;85.65
38466;BME280;24244;51.950;5.902;2022-11-15T11:07:32;100558.69;;;12.65;85.41
38466;BME280;24244;51.950;5.902;2022-11-15T11:10:03;100549.91;;;12.64;85.09
38466;BME280;24244;51.950;5.902;2022-11-15T11:12:50;100547.84;;;12.66;84.88
38466;BME280;24244;51.950;5.902;2022-11-15T11:15:17;100550.31;;;12.68;84.46
38466;BME280;24244;51.950;5.902;2022-11-15T11:17:57;100527.13;;;12.68;84.51
38466;BME280;24244;51.950;5.902;2022-11-15T11:20:33;100540.25;;;12.70;84.24
38466;BME280;24244;51.950;5.902;2022-11-15T11:23:18;100540.84;;;12.72;83.91
38466;BME280;24244;51.950;5.902;2022-11-15T11:25:52;100530.41;;;12.70;83.64
38466;BME280;24244;51.950;5.902;2022-11-15T11:28:36;100530.41;;;12.70;83.18
38466;BME280;24244;51.950;5.902;2022-11-15T11:31:18;100534.50;;;12.73;82.66
38466;BME280;24244;51.950;5.902;2022-11-15T11:33:58;100530.00;;;12.73;82.05
38466;BME280;24244;51.950;5.902;2022-11-15T11:36:39;100527.94;;;12.75;81.85
38466;BME280;24244;51.950;5.902;2022-11-15T11:42:10;100520.56;;;12.77;81.18
38466;BME280;24244;51.950;5.902;2022-11-15T11:44:53;100524.88;;;12.78;80.87
38466;BME280;24244;51.950;5.902;2022-11-15T11:47:31;100518.50;;;12.79;80.05
38466;BME280;24244;51.950;5.902;2022-11-15T11:50:13;100525.91;;;12.84;80.06
38466;BME280;24244;51.950;5.902;2022-11-15T11:52:44;100520.13;;;12.87;80.04
38466;BME280;24244;51.950;5.902;2022-11-15T11:55:33;100518.91;;;12.89;79.75
38466;BME280;24244;51.950;5.902;2022-11-15T11:58:12;100519.94;;;12.88;79.37
38466;BME280;24244;51.950;5.902;2022-11-15T12:03:43;100504.94;;;12.87;78.82
38466;BME280;24244;51.950;5.902;2022-11-15T12:06:21;100505.56;;;12.89;78.70
38466;BME280;24244;51.950;5.902;2022-11-15T12:08:53;100503.72;;;12.90;78.30
38466;BME280;24244;51.950;5.902;2022-11-15T12:11:34;100493.25;;;12.88;78.00
38466;BME280;24244;51.950;5.902;2022-11-15T12:14:12;100485.25;;;12.88;77.61
38466;BME280;24244;51.950;5.902;2022-11-15T12:16:45;100477.03;;;12.90;77.52
38466;BME280;24244;51.950;5.902;2022-11-15T12:19:12;100476.84;;;12.91;77.58
38466;BME280;24244;51.950;5.902;2022-11-15T12:21:44;100467.00;;;12.92;77.61
38466;BME280;24244;51.950;5.902;2022-11-15T12:24:16;100455.28;;;12.93;77.56
38466;BME280;24244;51.950;5.902;2022-11-15T12:26:49;100454.03;;;12.95;77.43
38466;BME280;24244;51.950;5.902;2022-11-15T12:29:20;100445.00;;;12.97;76.90
38466;BME280;24244;51.950;5.902;2022-11-15T12:31:51;100453.63;;;12.99;76.99
38466;BME280;24244;51.950;5.902;2022-11-15T12:34:38;100441.94;;;13.00;76.85
38466;BME280;24244;51.950;5.902;2022-11-15T12:40:32;100431.28;;;13.00;76.06
38466;BME280;24244;51.950;5.902;2022-11-15T12:43:03;100418.75;;;13.00;76.21
38466;BME280;24244;51.950;5.902;2022-11-15T12:45:32;100409.47;;;13.03;75.89
38466;BME280;24244;51.950;5.902;2022-11-15T12:48:46;100418.09;;;13.05;75.85
38466;BME280;24244;51.950;5.902;2022-11-15T12:51:13;100407.44;;;13.05;75.84
38466;BME280;24244;51.950;5.902;2022-11-15T12:53:39;100410.94;;;13.05;75.38
38466;BME280;24244;51.950;5.902;2022-11-15T12:56:21;100399.00;;;13.08;75.07
38466;BME280;24244;51.950;5.902;2022-11-15T12:58:53;100390.97;;;13.08;75.31
38466;BME280;24244;51.950;5.902;2022-11-15T13:01:58;100381.75;;;13.10;74.88
38466;BME280;24244;51.950;5.902;2022-11-15T13:04:27;100387.09;;;13.10;74.82
38466;BME280;24244;51.950;5.902;2022-11-15T13:06:56;100384.22;;;13.12;74.98
38466;BME280;24244;51.950;5.902;2022-11-15T13:12:47;100375.78;;;13.08;74.08
38466;BME280;24244;51.950;5.902;2022-11-15T13:18:32;100357.13;;;13.08;74.20
38466;BME280;24244;51.950;5.902;2022-11-15T13:21:05;100354.44;;;13.08;74.01
38466;BME280;24244;51.950;5.902;2022-11-15T13:24:12;100350.16;;;13.07;73.54
38466;BME280;24244;51.950;5.902;2022-11-15T13:26:40;100356.91;;;13.10;73.69
38466;BME280;24244;51.950;5.902;2022-11-15T13:29:16;100345.22;;;13.11;73.48
38466;BME280;24244;51.950;5.902;2022-11-15T13:31:44;100340.91;;;13.10;73.75
38466;BME280;24244;51.950;5.902;2022-11-15T13:34:30;100342.34;;;13.12;73.42
38466;BME280;24244;51.950;5.902;2022-11-15T13:37:30;100338.84;;;13.12;73.10